createdAt,value
2023-04-09T00:01:46.710Z,11.60
2023-04-09T00:04:15.962Z,9.73
2023-04-09T00:06:43.763Z,10.15
2023-04-09T00:09:11.540Z,9.98
2023-04-09T00:11:39.314Z,10.50
2023-04-09T00:14:07.374Z,10.27
2023-04-09T00:16:35.146Z,10.50
2023-04-09T00:19:02.856Z,10.25
2023-04-09T00:21:32.225Z,10.45
2023-04-09T00:23:59.967Z,10.68
2023-04-09T00:26:27.785Z,10.93
2023-04-09T00:28:55.626Z,11.05
2023-04-09T00:31:23.593Z,9.60
2023-04-09T00:33:51.296Z,9.52
2023-04-09T00:36:19.018Z,11.20
2023-04-09T00:38:48.729Z,9.63
2023-04-09T00:41:16.451Z,10.30
2023-04-09T00:43:44.124Z,10.15
2023-04-09T00:46:12.148Z,10.25
2023-04-09T00:48:40.505Z,9.95
2023-04-09T00:51:09.201Z,10.82
2023-04-09T00:53:36.942Z,10.00
2023-04-09T00:56:07.735Z,11.15
2023-04-09T00:58:35.821Z,10.98
2023-04-09T01:01:03.607Z,11.60
2023-04-09T01:03:31.584Z,11.95
2023-04-09T01:06:08.786Z,11.30
2023-04-09T01:08:49.149Z,9.65
2023-04-09T01:11:25.380Z,11.18
2023-04-09T01:14:05.831Z,10.63
2023-04-09T01:16:37.078Z,9.80
2023-04-09T01:19:17.751Z,10.40
2023-04-09T01:21:46.452Z,10.30
2023-04-09T01:24:22.614Z,10.65
2023-04-09T01:27:07.727Z,10.82
2023-04-09T01:29:40.544Z,11.02
2023-04-09T01:32:09.819Z,9.73
2023-04-09T01:34:38.933Z,9.30
2023-04-09T01:37:09.442Z,9.27
2023-04-09T01:39:38.906Z,10.43
2023-04-09T01:42:11.124Z,9.23
2023-04-09T01:44:41.584Z,9.05
2023-04-09T01:47:10.098Z,9.25
2023-04-09T01:49:39.549Z,9.50
2023-04-09T01:52:08.205Z,9.88
2023-04-09T01:54:35.888Z,9.90
2023-04-09T01:57:03.625Z,9.75
2023-04-09T01:59:31.314Z,8.80
2023-04-09T02:02:05.793Z,8.95
2023-04-09T02:04:36.616Z,10.23
2023-04-09T02:07:11.055Z,9.07
2023-04-09T02:09:41.828Z,9.82
2023-04-09T02:12:13.428Z,9.48
2023-04-09T02:14:42.237Z,9.88
2023-04-09T02:17:11.313Z,12.68
2023-04-09T02:19:42.294Z,10.00
2023-04-09T02:22:10.762Z,10.00
2023-04-09T02:24:38.651Z,11.10
2023-04-09T02:27:06.685Z,10.20
2023-04-09T02:29:34.738Z,10.35
2023-04-09T02:32:02.426Z,10.60
2023-04-09T02:34:31.542Z,10.38
2023-04-09T02:36:59.283Z,10.05
2023-04-09T02:39:27.127Z,11.05
2023-04-09T02:41:54.898Z,10.38
2023-04-09T02:44:22.598Z,10.23
2023-04-09T02:46:52.483Z,9.50
2023-04-09T02:49:20.229Z,9.50
2023-04-09T02:51:49.330Z,9.18
2023-04-09T02:54:17.007Z,9.90
2023-04-09T02:56:44.770Z,9.48
2023-04-09T02:59:12.434Z,9.20
2023-04-09T03:01:40.168Z,10.32
2023-04-09T03:04:07.989Z,9.07
2023-04-09T03:06:35.837Z,9.38
2023-04-09T03:09:04.992Z,10.38
2023-04-09T03:11:33.095Z,9.30
2023-04-09T03:14:01.092Z,10.02
2023-04-09T03:16:28.752Z,10.00
2023-04-09T03:18:56.466Z,10.25
2023-04-09T03:21:24.174Z,9.65
2023-04-09T03:23:51.919Z,9.50
2023-04-09T03:26:21.258Z,10.45
2023-04-09T03:28:49.073Z,10.27
2023-04-09T03:31:16.874Z,10.68
2023-04-09T03:33:44.592Z,9.48
2023-04-09T03:36:12.339Z,10.75
2023-04-09T03:38:39.990Z,10.20
2023-04-09T03:41:07.591Z,9.93
2023-04-09T03:43:36.635Z,10.05
2023-04-09T03:46:12.859Z,9.75
2023-04-09T03:48:41.321Z,9.77
2023-04-09T03:51:24.014Z,10.90
2023-04-09T03:53:51.715Z,9.57
2023-04-09T03:56:19.441Z,10.85
2023-04-09T03:58:49.805Z,10.82
2023-04-09T04:01:17.582Z,10.35
2023-04-09T04:03:45.482Z,10.30
2023-04-09T04:06:13.330Z,10.35
2023-04-09T04:08:41.022Z,10.25
2023-04-09T04:11:08.705Z,9.88
2023-04-09T04:13:36.373Z,9.90
2023-04-09T04:16:08.423Z,10.77
2023-04-09T04:18:36.148Z,10.70
2023-04-09T04:21:04.016Z,10.00
2023-04-09T04:23:31.700Z,11.45
2023-04-09T04:25:59.469Z,10.45
2023-04-09T04:28:27.231Z,10.07
2023-04-09T04:30:55.091Z,10.40
2023-04-09T04:33:24.251Z,11.00
2023-04-09T04:35:51.945Z,11.25
2023-04-09T04:38:19.625Z,10.20
2023-04-09T04:40:47.283Z,9.45
2023-04-09T04:43:15.036Z,9.88
2023-04-09T04:45:42.781Z,10.35
2023-04-09T04:48:10.510Z,10.15
2023-04-09T04:50:39.523Z,11.13
2023-04-09T04:53:08.322Z,10.27
2023-04-09T04:55:37.266Z,10.10
2023-04-09T04:58:04.952Z,10.32
2023-04-09T05:00:32.737Z,10.40
2023-04-09T05:03:00.610Z,10.68
2023-04-09T05:05:28.389Z,10.45
2023-04-09T05:07:57.418Z,11.70
2023-04-09T05:10:25.225Z,10.80
2023-04-09T05:12:52.929Z,11.52
2023-04-09T05:15:20.814Z,10.07
2023-04-09T05:17:48.511Z,12.15
2023-04-09T05:20:16.327Z,9.80
2023-04-09T05:22:44.033Z,11.25
2023-04-09T05:25:15.992Z,12.02
2023-04-09T05:27:43.815Z,10.38
2023-04-09T05:30:11.843Z,10.60
2023-04-09T05:32:39.493Z,10.48
2023-04-09T05:35:07.550Z,12.38
2023-04-09T05:37:35.316Z,10.75
2023-04-09T05:40:03.354Z,11.93
2023-04-09T05:42:32.423Z,11.88
2023-04-09T05:45:00.266Z,11.50
2023-04-09T05:47:28.751Z,11.63
2023-04-09T05:49:56.783Z,11.63
2023-04-09T05:52:24.494Z,10.52
2023-04-09T05:54:52.851Z,11.75
2023-04-09T05:57:20.653Z,10.27
2023-04-09T05:59:49.710Z,10.80
2023-04-09T06:02:17.540Z,11.50
2023-04-09T06:04:45.578Z,11.48
2023-04-09T06:07:13.342Z,12.80
2023-04-09T06:09:41.097Z,11.40
2023-04-09T06:12:08.819Z,12.95
2023-04-09T06:14:36.585Z,12.80
2023-04-09T06:17:05.648Z,13.07
2023-04-09T06:19:33.500Z,14.00
2023-04-09T06:22:01.228Z,12.82
2023-04-09T06:24:28.997Z,13.45
2023-04-09T06:26:56.730Z,12.85
2023-04-09T06:29:24.570Z,13.65
2023-04-09T06:31:52.648Z,13.90
2023-04-09T06:34:21.758Z,13.77
2023-04-09T06:36:49.457Z,14.27
2023-04-09T06:39:17.323Z,12.95
2023-04-09T06:41:45.210Z,14.23
2023-04-09T06:44:12.886Z,13.35
2023-04-09T06:46:40.863Z,13.38
2023-04-09T06:49:08.695Z,14.60
2023-04-09T06:51:37.802Z,13.20
2023-04-09T06:54:05.483Z,12.90
2023-04-09T06:56:33.249Z,14.32
2023-04-09T06:59:01.089Z,12.27
2023-04-09T07:01:29.035Z,12.18
2023-04-09T07:03:57.203Z,11.95
2023-04-09T07:06:25.214Z,12.07
2023-04-09T07:08:54.558Z,11.98
2023-04-09T07:11:22.775Z,11.85
2023-04-09T07:13:50.572Z,11.02
2023-04-09T07:16:18.316Z,11.05
2023-04-09T07:18:46.997Z,10.43
2023-04-09T07:21:14.882Z,11.27
2023-04-09T07:23:42.590Z,11.05
2023-04-09T07:26:11.737Z,10.30
2023-04-09T07:28:39.825Z,9.98
2023-04-09T07:31:07.817Z,9.95
2023-04-09T07:33:35.621Z,7.90
2023-04-09T07:36:03.487Z,8.60
2023-04-09T07:38:31.636Z,8.82
2023-04-09T07:40:59.378Z,7.10
2023-04-09T07:43:28.552Z,7.13
2023-04-09T07:45:56.299Z,7.10
2023-04-09T07:48:24.100Z,6.90
2023-04-09T07:50:51.918Z,5.70
2023-04-09T07:53:19.664Z,6.33
2023-04-09T07:55:47.533Z,6.10
2023-04-09T07:58:15.739Z,6.73
2023-04-09T08:00:45.427Z,6.33
2023-04-09T08:03:14.127Z,5.67
2023-04-09T08:05:42.010Z,6.90
2023-04-09T08:08:09.853Z,6.47
2023-04-09T08:10:37.803Z,7.67
2023-04-09T08:13:05.960Z,7.73
2023-04-09T08:15:33.781Z,8.03
2023-04-09T08:18:04.218Z,6.90
2023-04-09T08:20:33.141Z,7.30
2023-04-09T08:23:00.895Z,6.90
2023-04-09T08:25:28.616Z,7.83
2023-04-09T08:27:56.905Z,7.63
2023-04-09T08:30:24.754Z,7.73
2023-04-09T08:32:53.225Z,6.10
2023-04-09T08:35:22.680Z,5.97
2023-04-09T08:37:51.163Z,6.27
2023-04-09T08:40:19.830Z,6.60
2023-04-09T08:42:50.887Z,6.40
2023-04-09T08:45:18.770Z,6.00
2023-04-09T08:47:50.526Z,6.80
2023-04-09T08:50:18.513Z,6.77
2023-04-09T08:52:49.163Z,7.43
2023-04-09T08:55:16.889Z,8.20
2023-04-09T08:57:44.600Z,7.90
2023-04-09T09:00:13.531Z,7.30
2023-04-09T09:03:05.358Z,8.10
2023-04-09T09:05:40.949Z,7.17
2023-04-09T09:08:25.825Z,7.13
2023-04-09T09:10:53.847Z,7.27
2023-04-09T09:13:24.063Z,7.30
2023-04-09T09:15:55.216Z,7.10
2023-04-09T09:18:38.200Z,7.33
2023-04-09T09:21:11.934Z,6.73
2023-04-09T09:23:42.441Z,7.03
2023-04-09T09:26:14.627Z,6.40
2023-04-09T09:28:42.613Z,7.70
2023-04-09T09:31:12.068Z,6.90
2023-04-09T09:33:40.513Z,8.13
2023-04-09T09:36:09.895Z,7.93
2023-04-09T09:38:55.838Z,8.47
2023-04-09T09:41:24.455Z,8.40
2023-04-09T09:43:52.768Z,7.03
2023-04-09T09:46:22.399Z,6.13
2023-04-09T09:48:51.185Z,7.60
2023-04-09T09:51:20.768Z,8.23
2023-04-09T09:53:52.356Z,6.43
2023-04-09T09:56:24.973Z,6.17
2023-04-09T09:59:01.678Z,6.47
2023-04-09T10:01:29.807Z,5.10
2023-04-09T10:04:01.480Z,5.03
2023-04-09T10:06:30.298Z,4.50
2023-04-09T10:09:01.315Z,5.07
2023-04-09T10:11:31.564Z,5.13
2023-04-09T10:13:59.821Z,4.93
2023-04-09T10:16:28.610Z,4.90
2023-04-09T10:18:57.266Z,5.33
2023-04-09T10:21:35.743Z,6.00
2023-04-09T10:24:06.121Z,6.00
2023-04-09T10:26:36.547Z,5.03
2023-04-09T10:29:06.915Z,5.00
2023-04-09T10:31:47.634Z,4.27
2023-04-09T10:34:17.617Z,4.33
2023-04-09T10:36:45.615Z,4.00
2023-04-09T10:39:14.645Z,4.50
2023-04-09T10:41:45.915Z,4.87
2023-04-09T10:44:23.740Z,5.97
2023-04-09T10:46:54.779Z,5.10
2023-04-09T10:49:23.707Z,5.60
2023-04-09T10:51:55.269Z,4.97
2023-04-09T10:54:46.666Z,5.47
2023-04-09T10:57:17.945Z,4.93
2023-04-09T10:59:47.173Z,5.60
2023-04-09T11:02:54.101Z,5.10
2023-04-09T11:05:29.346Z,4.13
2023-04-09T11:08:04.180Z,4.30
2023-04-09T11:10:32.627Z,5.43
2023-04-09T11:13:02.470Z,5.53
2023-04-09T11:15:30.636Z,5.47
2023-04-09T11:17:58.647Z,5.30
2023-04-09T11:20:27.719Z,5.07
2023-04-09T11:22:56.567Z,5.60
2023-04-09T11:25:26.321Z,4.80
2023-04-09T11:27:54.804Z,5.57
2023-04-09T11:30:24.087Z,6.00
2023-04-09T11:32:52.360Z,5.50
2023-04-09T11:35:22.263Z,6.50
2023-04-09T11:37:52.265Z,7.03
2023-04-09T11:40:21.923Z,5.00
2023-04-09T11:42:51.582Z,5.50
2023-04-09T11:45:20.547Z,5.40
2023-04-09T11:47:50.395Z,5.60
2023-04-09T11:50:18.971Z,5.50
2023-04-09T11:52:47.042Z,5.03
2023-04-09T11:55:30.492Z,4.93
2023-04-09T11:58:01.087Z,4.60
2023-04-09T12:00:30.035Z,5.30
2023-04-09T12:03:03.647Z,5.17
2023-04-09T12:05:33.825Z,5.03
2023-04-09T12:08:03.080Z,5.27
2023-04-09T12:10:32.346Z,4.93
2023-04-09T12:13:04.303Z,4.87
2023-04-09T12:15:34.604Z,4.97
2023-04-09T12:18:04.463Z,5.57
2023-04-09T12:20:34.727Z,5.30
2023-04-09T12:23:04.556Z,5.80
2023-04-09T12:25:32.656Z,5.67
2023-04-09T12:28:00.521Z,5.40
2023-04-09T12:30:43.936Z,5.40
2023-04-09T12:33:13.045Z,5.60
2023-04-09T12:35:41.016Z,5.30
2023-04-09T12:38:08.953Z,5.47
2023-04-09T12:40:37.015Z,5.10
2023-04-09T12:43:04.983Z,6.27
2023-04-09T12:45:33.126Z,5.40
2023-04-09T12:48:00.851Z,6.17
2023-04-09T12:50:30.046Z,5.70
2023-04-09T12:52:57.805Z,6.30
2023-04-09T12:55:25.508Z,5.23
2023-04-09T12:57:53.175Z,6.67
2023-04-09T13:00:20.911Z,5.70
2023-04-09T13:02:48.731Z,5.50
2023-04-09T13:05:16.423Z,5.70
2023-04-09T13:07:45.717Z,5.30
2023-04-09T13:10:13.417Z,4.77
2023-04-09T13:12:41.284Z,4.60
2023-04-09T13:15:09.253Z,4.27
2023-04-09T13:17:37.029Z,4.67
2023-04-09T13:20:05.443Z,5.23
2023-04-09T13:22:33.339Z,4.23
2023-04-09T13:25:02.543Z,4.40
2023-04-09T13:27:30.375Z,4.30
2023-04-09T13:29:58.348Z,4.20
2023-04-09T13:32:26.130Z,5.10
2023-04-09T13:34:55.657Z,4.67
2023-04-09T13:37:23.402Z,4.73
2023-04-09T13:39:51.320Z,4.60
2023-04-09T13:42:20.371Z,4.70
2023-04-09T13:44:48.050Z,4.70
2023-04-09T13:47:18.073Z,4.57
2023-04-09T13:49:45.820Z,4.10
2023-04-09T13:52:14.631Z,4.13
2023-04-09T13:54:42.399Z,4.60
2023-04-09T13:57:10.352Z,4.93
2023-04-09T13:59:41.638Z,4.73
2023-04-09T14:02:10.394Z,4.90
2023-04-09T14:04:38.370Z,4.80
2023-04-09T14:07:06.153Z,5.00
2023-04-09T14:09:33.865Z,4.10
2023-04-09T14:12:01.845Z,4.00
2023-04-09T14:14:29.647Z,4.67
2023-04-09T14:16:58.699Z,4.07
2023-04-09T14:19:26.397Z,4.73
2023-04-09T14:21:55.726Z,4.70
2023-04-09T14:24:27.829Z,3.50
2023-04-09T14:26:55.537Z,4.40
2023-04-09T14:29:23.182Z,4.10
2023-04-09T14:31:51.756Z,4.50
2023-04-09T14:34:21.080Z,5.20
2023-04-09T14:36:48.802Z,4.13
2023-04-09T14:39:16.513Z,5.07
2023-04-09T14:41:44.225Z,4.50
2023-04-09T14:44:11.845Z,5.13
2023-04-09T14:46:39.830Z,4.30
2023-04-09T14:49:07.541Z,4.67
2023-04-09T14:51:37.289Z,4.50
2023-04-09T14:54:05.149Z,5.90
2023-04-09T14:56:32.848Z,5.13
2023-04-09T14:59:00.542Z,4.97
2023-04-09T15:01:28.754Z,5.03
2023-04-09T15:03:57.008Z,5.17
2023-04-09T15:06:24.879Z,5.23
2023-04-09T15:08:54.106Z,5.90
2023-04-09T15:11:22.796Z,5.40
2023-04-09T15:13:50.763Z,5.10
2023-04-09T15:16:22.612Z,5.47
2023-04-09T15:18:52.112Z,5.40
2023-04-09T15:21:20.700Z,5.33
2023-04-09T15:23:48.496Z,4.73
2023-04-09T15:26:17.525Z,5.07
2023-04-09T15:28:46.100Z,4.90
2023-04-09T15:31:14.036Z,4.80
2023-04-09T15:33:43.665Z,4.70
2023-04-09T15:36:11.798Z,5.20
2023-04-09T15:38:39.621Z,5.13
2023-04-09T15:41:07.342Z,4.97
2023-04-09T15:43:36.498Z,4.10
2023-04-09T15:46:09.410Z,4.80
2023-04-09T15:48:37.354Z,4.20
2023-04-09T15:51:05.852Z,4.40
2023-04-09T15:53:33.528Z,4.83
2023-04-09T15:56:01.198Z,4.53
2023-04-09T15:58:28.872Z,4.90
2023-04-09T16:00:57.950Z,5.40
2023-04-09T16:03:25.832Z,4.70
2023-04-09T16:05:53.542Z,5.50
2023-04-09T16:08:21.279Z,4.53
2023-04-09T16:10:48.968Z,5.00
2023-04-09T16:13:16.620Z,5.60
2023-04-09T16:15:45.384Z,5.23
2023-04-09T16:18:14.440Z,5.70
2023-04-09T16:20:42.249Z,4.37
2023-04-09T16:23:09.951Z,5.20
2023-04-09T16:25:37.713Z,5.60
2023-04-09T16:28:05.949Z,4.90
2023-04-09T16:30:33.889Z,4.77
2023-04-09T16:33:01.605Z,5.30
2023-04-09T16:35:30.897Z,4.73
2023-04-09T16:37:58.609Z,4.73
2023-04-09T16:40:26.460Z,5.37
2023-04-09T16:42:54.260Z,5.50
2023-04-09T16:45:22.151Z,4.30
2023-04-09T16:47:53.814Z,4.90
2023-04-09T16:50:21.875Z,4.60
2023-04-09T16:52:50.977Z,4.93
2023-04-09T16:55:18.691Z,4.50
2023-04-09T16:57:46.400Z,4.77
2023-04-09T17:00:17.193Z,3.83
2023-04-09T17:02:45.908Z,4.70
2023-04-09T17:05:13.853Z,4.30
2023-04-09T17:07:41.585Z,4.47
2023-04-09T17:10:11.510Z,4.30
2023-04-09T17:12:39.854Z,4.70
2023-04-09T17:15:08.757Z,5.47
2023-04-09T17:17:37.328Z,4.67
2023-04-09T17:20:05.716Z,4.70
2023-04-09T17:22:35.058Z,3.83
2023-04-09T17:25:04.256Z,4.63
2023-04-09T17:27:33.328Z,4.33
2023-04-09T17:30:01.812Z,4.43
2023-04-09T17:32:29.676Z,4.60
2023-04-09T17:34:59.500Z,4.57
2023-04-09T17:37:29.121Z,4.40
2023-04-09T17:39:56.792Z,4.67
2023-04-09T17:42:24.515Z,4.10
2023-04-09T17:44:53.656Z,4.10
2023-04-09T17:47:21.504Z,4.90
2023-04-09T17:49:49.277Z,4.67
2023-04-09T17:52:16.981Z,5.03
2023-04-09T17:54:45.707Z,4.47
2023-04-09T17:57:13.471Z,4.97
2023-04-09T17:59:41.120Z,5.30
2023-04-09T18:02:10.516Z,4.97
2023-04-09T18:04:38.657Z,4.90
2023-04-09T18:07:06.593Z,4.73
2023-04-09T18:09:34.435Z,4.70
2023-04-09T18:12:02.843Z,5.33
2023-04-09T18:14:32.396Z,4.90
2023-04-09T18:17:01.068Z,4.90
2023-04-09T18:19:30.265Z,5.00
2023-04-09T18:21:57.955Z,4.53
2023-04-09T18:24:26.397Z,5.40
2023-04-09T18:26:55.008Z,5.47
2023-04-09T18:29:22.705Z,4.97
2023-04-09T18:31:50.513Z,5.40
2023-04-09T18:34:19.204Z,6.20
2023-04-09T18:36:49.016Z,5.90
2023-04-09T18:39:16.793Z,5.60
2023-04-09T18:41:44.710Z,5.00
2023-04-09T18:44:12.357Z,5.13
2023-04-09T18:46:40.144Z,5.00
2023-04-09T18:49:07.907Z,4.93
2023-04-09T18:51:35.626Z,5.40
2023-04-09T18:54:04.825Z,5.87
2023-04-09T18:56:32.470Z,5.80
2023-04-09T18:59:00.415Z,5.70
2023-04-09T19:01:28.280Z,6.07
2023-04-09T19:03:56.233Z,5.37
2023-04-09T19:06:25.530Z,4.77
2023-04-09T19:08:57.876Z,8.20
2023-04-09T19:11:27.057Z,5.37
2023-04-09T19:13:54.818Z,5.43
2023-04-09T19:16:22.803Z,6.40
2023-04-09T19:18:50.656Z,6.13
2023-04-09T19:21:18.624Z,6.07
2023-04-09T19:23:47.359Z,5.90
2023-04-09T19:26:15.040Z,6.47
2023-04-09T19:28:44.028Z,6.10
2023-04-09T19:31:14.270Z,6.40
2023-04-09T19:33:42.070Z,6.20
2023-04-09T19:36:09.748Z,6.57
2023-04-09T19:38:37.581Z,6.53
2023-04-09T19:41:05.670Z,6.50
2023-04-09T19:43:33.430Z,7.03
2023-04-09T19:46:05.843Z,6.77
2023-04-09T19:48:33.563Z,6.05
2023-04-09T19:51:01.947Z,6.10
2023-04-09T19:53:30.945Z,7.43
2023-04-09T19:55:58.645Z,7.47
2023-04-09T19:58:26.375Z,6.90
2023-04-09T20:00:54.935Z,7.00
2023-04-09T20:03:24.208Z,7.40
2023-04-09T20:05:52.018Z,7.28
2023-04-09T20:08:19.682Z,7.20
2023-04-09T20:10:47.735Z,6.63
2023-04-09T20:13:15.503Z,6.35
2023-04-09T20:15:43.658Z,7.05
2023-04-09T20:18:11.464Z,6.75
2023-04-09T20:20:40.628Z,7.70
2023-04-09T20:23:08.347Z,6.85
2023-04-09T20:25:36.699Z,7.80
2023-04-09T20:28:04.775Z,8.90
2023-04-09T20:30:32.932Z,8.73
2023-04-09T20:33:01.320Z,7.55
2023-04-09T20:35:29.245Z,7.57
2023-04-09T20:37:58.435Z,7.47
2023-04-09T20:40:26.418Z,6.97
2023-04-09T20:42:54.173Z,7.22
2023-04-09T20:45:22.244Z,7.70
2023-04-09T20:47:51.068Z,7.28
2023-04-09T20:50:19.528Z,7.55
2023-04-09T20:52:47.568Z,7.25
2023-04-09T20:55:16.727Z,6.85
2023-04-09T20:57:44.393Z,7.25
2023-04-09T21:00:13.283Z,6.63
2023-04-09T21:02:41.884Z,7.78
2023-04-09T21:05:21.725Z,7.32
2023-04-09T21:07:51.155Z,7.15
2023-04-09T21:10:20.317Z,7.57
2023-04-09T21:12:48.170Z,7.32
2023-04-09T21:15:16.071Z,7.25
2023-04-09T21:17:43.894Z,7.80
2023-04-09T21:20:12.336Z,7.18
2023-04-09T21:22:39.989Z,7.35
2023-04-09T21:25:08.441Z,8.07
2023-04-09T21:27:37.483Z,6.50
2023-04-09T21:30:05.979Z,6.45
2023-04-09T21:32:34.007Z,6.90
2023-04-09T21:35:01.811Z,7.78
2023-04-09T21:37:31.842Z,7.65
2023-04-09T21:39:59.525Z,9.98
2023-04-09T21:42:27.436Z,7.78
2023-04-09T21:44:56.638Z,8.63
2023-04-09T21:47:24.732Z,8.32
2023-04-09T21:49:52.465Z,7.43
2023-04-09T21:52:20.321Z,7.93
2023-04-09T21:54:48.004Z,7.68
2023-04-09T21:57:16.017Z,8.70
2023-04-09T21:59:43.882Z,7.50
2023-04-09T22:02:13.088Z,7.65
2023-04-09T22:04:42.487Z,8.13
2023-04-09T22:07:10.989Z,7.07
2023-04-09T22:09:39.279Z,7.80
2023-04-09T22:12:07.182Z,7.70
2023-04-09T22:14:34.922Z,8.02
2023-04-09T22:17:03.403Z,8.00
2023-04-09T22:19:33.197Z,7.45
2023-04-09T22:22:08.931Z,8.50
2023-04-09T22:24:36.599Z,8.25
2023-04-09T22:27:04.313Z,8.05
2023-04-09T22:29:31.992Z,8.10
2023-04-09T22:31:59.725Z,8.40
2023-04-09T22:34:27.613Z,8.35
2023-04-09T22:36:56.650Z,7.28
2023-04-09T22:39:24.296Z,7.88
2023-04-09T22:41:52.087Z,8.82
2023-04-09T22:44:19.787Z,7.63
2023-04-09T22:46:47.525Z,8.43
2023-04-09T22:49:15.836Z,8.00
2023-04-09T22:51:43.605Z,8.30
2023-04-09T22:54:13.076Z,8.80
2023-04-09T22:56:40.727Z,9.23
2023-04-09T22:59:08.407Z,8.27
2023-04-09T23:01:36.766Z,8.43
2023-04-09T23:04:04.668Z,8.68
2023-04-09T23:06:32.358Z,8.13
2023-04-09T23:09:00.457Z,8.38
2023-04-09T23:11:30.542Z,8.00
2023-04-09T23:13:58.244Z,8.52
2023-04-09T23:16:26.441Z,7.50
2023-04-09T23:18:54.540Z,8.25
2023-04-09T23:21:22.617Z,9.32
2023-04-09T23:23:50.357Z,8.82
2023-04-09T23:26:18.019Z,10.38
2023-04-09T23:28:47.060Z,10.15
2023-04-09T23:31:14.742Z,9.55
2023-04-09T23:33:42.430Z,9.90
2023-04-09T23:36:10.747Z,10.35
2023-04-09T23:38:40.329Z,9.70
2023-04-09T23:41:08.151Z,10.82
2023-04-09T23:43:35.968Z,9.70
2023-04-09T23:46:05.428Z,10.30
2023-04-09T23:48:33.218Z,9.55
2023-04-09T23:51:00.949Z,10.60
2023-04-09T23:53:28.632Z,9.20
2023-04-09T23:55:56.377Z,9.85
2023-04-09T23:58:24.131Z,9.13
